sensor_id;sensor_type;location;lat;lon;timestamp;pressure;altitude;pressure_sealevel;temperature;humidity
44144;BME280;68165;51.920;4.492;2023-05-07T00:00:15;67785.56;;;17.42;100.00
44144;BME280;68165;51.920;4.492;2023-05-07T00:02:43;67775.69;;;17.28;100.00
44144;BME280;68165;51.920;4.492;2023-05-07T00:05:09;67789.50;;;17.45;100.00
44144;BME280;68165;51.920;4.492;2023-05-07T00:07:35;67795.09;;;17.50;100.00
44144;BME280;68165;51.920;4.492;2023-05-07T00:10:01;67799.56;;;17.54;100.00
44144;BME280;68165;51.920;4.492;2023-05-07T00:12:26;67811.94;;;17.66;100.00
44144;BME280;68165;51.920;4.492;2023-05-07T00:14:52;67812.34;;;17.64;100.00
44144;BME280;68165;51.920;4.492;2023-05-07T00:17:17;67819.06;;;17.70;100.00
44144;BME280;68165;51.920;4.492;2023-05-07T00:19:42;67820.75;;;17.71;100.00
44144;BME280;68165;51.920;4.492;2023-05-07T00:22:08;67810.81;;;17.65;100.00
44144;BME280;68165;51.920;4.492;2023-05-07T00:24:33;67812.66;;;17.69;100.00
44144;BME280;68165;51.920;4.492;2023-05-07T00:26:59;67819.78;;;17.73;100.00
44144;BME280;68165;51.920;4.492;2023-05-07T00:29:25;67823.88;;;17.79;100.00
44144;BME280;68165;51.920;4.492;2023-05-07T00:31:50;67821.50;;;17.74;100.00
44144;BME280;68165;51.920;4.492;2023-05-07T00:34:16;67822.06;;;17.75;100.00
44144;BME280;68165;51.920;4.492;2023-05-07T00:36:41;67823.00;;;17.73;100.00
44144;BME280;68165;51.920;4.492;2023-05-07T00:39:06;67824.28;;;17.77;100.00
44144;BME280;68165;51.920;4.492;2023-05-07T00:41:32;67821.22;;;17.79;100.00
44144;BME280;68165;51.920;4.492;2023-05-07T00:43:57;67825.41;;;17.78;100.00
44144;BME280;68165;51.920;4.492;2023-05-07T00:46:23;67825.41;;;17.78;100.00
44144;BME280;68165;51.920;4.492;2023-05-07T00:48:50;67815.31;;;17.69;100.00
44144;BME280;68165;51.920;4.492;2023-05-07T00:51:17;67805.78;;;17.60;100.00
44144;BME280;68165;51.920;4.492;2023-05-07T00:53:43;67791.72;;;17.47;100.00
44144;BME280;68165;51.920;4.492;2023-05-07T00:56:08;67783.88;;;17.40;100.00
44144;BME280;68165;51.920;4.492;2023-05-07T00:58:33;67777.13;;;17.34;100.00
44144;BME280;68165;51.920;4.492;2023-05-07T01:01:00;67770.81;;;17.26;100.00
44144;BME280;68165;51.920;4.492;2023-05-07T01:03:25;67767.03;;;17.25;100.00
44144;BME280;68165;51.920;4.492;2023-05-07T01:05:52;67759.59;;;17.16;100.00
44144;BME280;68165;51.920;4.492;2023-05-07T01:08:18;67750.94;;;17.13;100.00
44144;BME280;68165;51.920;4.492;2023-05-07T01:10:44;67759.59;;;17.16;100.00
44144;BME280;68165;51.920;4.492;2023-05-07T01:13:11;67766.75;;;17.20;100.00
44144;BME280;68165;51.920;4.492;2023-05-07T01:15:37;67774.16;;;17.29;100.00
44144;BME280;68165;51.920;4.492;2023-05-07T01:18:03;67777.69;;;17.35;100.00
44144;BME280;68165;51.920;4.492;2023-05-07T01:20:29;67772.66;;;17.30;100.00
44144;BME280;68165;51.920;4.492;2023-05-07T01:22:54;67779.38;;;17.36;100.00
44144;BME280;68165;51.920;4.492;2023-05-07T01:25:20;67788.38;;;17.44;100.00
44144;BME280;68165;51.920;4.492;2023-05-07T01:27:46;67787.63;;;17.41;100.00
44144;BME280;68165;51.920;4.492;2023-05-07T01:30:12;67794.53;;;17.50;100.00
44144;BME280;68165;51.920;4.492;2023-05-07T01:32:42;67799.00;;;17.54;100.00
44144;BME280;68165;51.920;4.492;2023-05-07T01:35:11;67792.84;;;17.48;100.00
44144;BME280;68165;51.920;4.492;2023-05-07T01:37:38;67793.25;;;17.46;100.00
44144;BME280;68165;51.920;4.492;2023-05-07T01:40:04;67787.25;;;17.43;100.00
44144;BME280;68165;51.920;4.492;2023-05-07T01:42:31;67799.97;;;17.52;100.00
44144;BME280;68165;51.920;4.492;2023-05-07T01:44:56;67805.03;;;17.57;100.00
44144;BME280;68165;51.920;4.492;2023-05-07T01:47:22;67810.09;;;17.62;100.00
44144;BME280;68165;51.920;4.492;2023-05-07T01:49:48;67805.03;;;17.57;100.00
44144;BME280;68165;51.920;4.492;2023-05-07T01:52:13;67804.88;;;17.54;100.00
44144;BME280;68165;51.920;4.492;2023-05-07T01:54:39;67801.09;;;17.53;100.00
44144;BME280;68165;51.920;4.492;2023-05-07T01:57:04;67790.59;;;17.46;100.00
44144;BME280;68165;51.920;4.492;2023-05-07T01:59:30;67809.34;;;17.59;100.00
44144;BME280;68165;51.920;4.492;2023-05-07T02:01:55;67807.47;;;17.62;100.00
44144;BME280;68165;51.920;4.492;2023-05-07T02:04:20;67809.34;;;17.59;100.00
44144;BME280;68165;51.920;4.492;2023-05-07T02:06:46;67804.06;;;17.59;100.00
44144;BME280;68165;51.920;4.492;2023-05-07T02:09:11;67810.66;;;17.62;100.00
44144;BME280;68165;51.920;4.492;2023-05-07T02:11:36;67814.03;;;17.65;100.00
44144;BME280;68165;51.920;4.492;2023-05-07T02:14:02;67817.25;;;17.66;100.00
44144;BME280;68165;51.920;4.492;2023-05-07T02:16:27;67813.88;;;17.63;100.00
44144;BME280;68165;51.920;4.492;2023-05-07T02:18:52;67804.06;;;17.59;100.00
44144;BME280;68165;51.920;4.492;2023-05-07T02:21:18;67810.09;;;17.62;100.00
44144;BME280;68165;51.920;4.492;2023-05-07T02:23:43;67813.88;;;17.63;100.00
44144;BME280;68165;51.920;4.492;2023-05-07T02:26:08;67812.66;;;17.69;100.00
44144;BME280;68165;51.920;4.492;2023-05-07T02:28:34;67822.44;;;17.73;100.00
44144;BME280;68165;51.920;4.492;2023-05-07T02:31:02;67819.63;;;17.70;100.00
44144;BME280;68165;51.920;4.492;2023-05-07T02:33:28;67818.09;;;17.71;100.00
44144;BME280;68165;51.920;4.492;2023-05-07T02:35:53;67814.19;;;17.68;100.00
44144;BME280;68165;51.920;4.492;2023-05-07T02:38:18;67812.50;;;17.66;100.00
44144;BME280;68165;51.920;4.492;2023-05-07T02:40:44;67817.97;;;17.69;100.00
44144;BME280;68165;51.920;4.492;2023-05-07T02:43:09;67818.38;;;17.67;100.00
44144;BME280;68165;51.920;4.492;2023-05-07T02:45:35;67811.78;;;17.63;100.00
44144;BME280;68165;51.920;4.492;2023-05-07T02:48:02;67816.84;;;17.68;100.00
44144;BME280;68165;51.920;4.492;2023-05-07T02:50:28;67814.19;;;17.68;100.00
44144;BME280;68165;51.920;4.492;2023-05-07T02:52:53;67809.16;;;17.63;100.00
44144;BME280;68165;51.920;4.492;2023-05-07T02:55:20;67821.31;;;17.72;100.00
44144;BME280;68165;51.920;4.492;2023-05-07T02:57:45;67817.53;;;17.71;100.00
44144;BME280;68165;51.920;4.492;2023-05-07T03:00:20;67811.94;;;17.66;100.00
44144;BME280;68165;51.920;4.492;2023-05-07T03:02:45;67809.91;;;17.59;100.00
44144;BME280;68165;51.920;4.492;2023-05-07T03:05:11;67807.13;;;17.57;100.00
44144;BME280;68165;51.920;4.492;2023-05-07T03:07:37;67811.94;;;17.66;100.00
44144;BME280;68165;51.920;4.492;2023-05-07T03:10:04;67813.06;;;17.67;100.00
44144;BME280;68165;51.920;4.492;2023-05-07T03:12:30;67813.06;;;17.67;100.00
44144;BME280;68165;51.920;4.492;2023-05-07T03:14:56;67815.72;;;17.67;100.00
44144;BME280;68165;51.920;4.492;2023-05-07T03:17:21;67813.88;;;17.63;100.00
44144;BME280;68165;51.920;4.492;2023-05-07T03:19:47;67806.34;;;17.61;100.00
44144;BME280;68165;51.920;4.492;2023-05-07T03:22:12;67810.81;;;17.65;100.00
44144;BME280;68165;51.920;4.492;2023-05-07T03:24:37;67814.28;;;17.61;100.00
44144;BME280;68165;51.920;4.492;2023-05-07T03:27:03;67810.09;;;17.62;100.00
44144;BME280;68165;51.920;4.492;2023-05-07T03:29:28;67811.94;;;17.66;100.00
44144;BME280;68165;51.920;4.492;2023-05-07T03:31:54;67804.63;;;17.59;100.00
44144;BME280;68165;51.920;4.492;2023-05-07T03:34:19;67806.34;;;17.61;100.00
44144;BME280;68165;51.920;4.492;2023-05-07T03:36:48;67809.91;;;17.59;100.00
44144;BME280;68165;51.920;4.492;2023-05-07T03:39:13;67797.75;;;17.50;100.00
44144;BME280;68165;51.920;4.492;2023-05-07T03:41:39;67801.09;;;17.53;100.00
44144;BME280;68165;51.920;4.492;2023-05-07T03:44:04;67794.69;;;17.52;100.00
44144;BME280;68165;51.920;4.492;2023-05-07T03:46:30;67795.09;;;17.50;100.00
44144;BME280;68165;51.920;4.492;2023-05-07T03:48:55;67799.00;;;17.54;100.00
44144;BME280;68165;51.920;4.492;2023-05-07T03:51:20;67794.53;;;17.50;100.00
44144;BME280;68165;51.920;4.492;2023-05-07T03:53:46;67793.97;;;17.49;100.00
44144;BME280;68165;51.920;4.492;2023-05-07T03:56:11;67805.59;;;17.58;100.00
44144;BME280;68165;51.920;4.492;2023-05-07T03:58:37;67802.38;;;17.57;100.00
44144;BME280;68165;51.920;4.492;2023-05-07T04:01:02;67808.41;;;17.60;100.00
44144;BME280;68165;51.920;4.492;2023-05-07T04:03:29;67808.59;;;17.63;100.00
44144;BME280;68165;51.920;4.492;2023-05-07T04:05:54;67810.81;;;17.65;100.00
44144;BME280;68165;51.920;4.492;2023-05-07T04:08:20;67809.16;;;17.63;100.00
44144;BME280;68165;51.920;4.492;2023-05-07T04:10:45;67799.41;;;17.52;100.00
44144;BME280;68165;51.920;4.492;2023-05-07T04:13:10;67802.22;;;17.54;100.00
44144;BME280;68165;51.920;4.492;2023-05-07T04:15:36;67805.94;;;17.63;100.00
44144;BME280;68165;51.920;4.492;2023-05-07T04:18:01;67801.66;;;17.54;100.00
44144;BME280;68165;51.920;4.492;2023-05-07T04:20:27;67816.13;;;17.65;100.00
44144;BME280;68165;51.920;4.492;2023-05-07T04:22:52;67814.75;;;17.68;100.00
44144;BME280;68165;51.920;4.492;2023-05-07T04:25:17;67814.19;;;17.68;100.00
44144;BME280;68165;51.920;4.492;2023-05-07T04:27:43;67816.97;;;17.70;100.00
44144;BME280;68165;51.920;4.492;2023-05-07T04:30:08;67814.19;;;17.68;100.00
44144;BME280;68165;51.920;4.492;2023-05-07T04:32:34;67815.31;;;17.69;100.00
44144;BME280;68165;51.920;4.492;2023-05-07T04:34:59;67817.97;;;17.69;100.00
44144;BME280;68165;51.920;4.492;2023-05-07T04:37:25;67813.22;;;17.69;100.00
44144;BME280;68165;51.920;4.492;2023-05-07T04:39:50;67816.41;;;17.70;100.00
44144;BME280;68165;51.920;4.492;2023-05-07T04:42:17;67817.53;;;17.71;100.00
44144;BME280;68165;51.920;4.492;2023-05-07T04:44:44;67823.16;;;17.76;100.00
44144;BME280;68165;51.920;4.492;2023-05-07T04:47:09;67831.44;;;17.81;100.00
44144;BME280;68165;51.920;4.492;2023-05-07T04:49:35;67833.09;;;17.82;100.00
44144;BME280;68165;51.920;4.492;2023-05-07T04:52:00;67838.72;;;17.87;100.00
44144;BME280;68165;51.920;4.492;2023-05-07T04:54:27;67837.75;;;17.89;100.00
44144;BME280;68165;51.920;4.492;2023-05-07T04:56:52;67845.03;;;17.95;100.00
44144;BME280;68165;51.920;4.492;2023-05-07T04:59:18;67850.34;;;17.95;100.00
44144;BME280;68165;51.920;4.492;2023-05-07T05:01:43;67843.69;;;17.99;100.00
44144;BME280;68165;51.920;4.492;2023-05-07T05:04:08;67851.63;;;17.99;100.00
44144;BME280;68165;51.920;4.492;2023-05-07T05:06:35;67854.59;;;18.04;100.00
44144;BME280;68165;51.920;4.492;2023-05-07T05:09:00;67852.75;;;18.00;100.00
44144;BME280;68165;51.920;4.492;2023-05-07T05:11:26;67850.09;;;18.00;100.00
44144;BME280;68165;51.920;4.492;2023-05-07T05:13:51;67853.47;;;18.03;100.00
44144;BME280;68165;51.920;4.492;2023-05-07T05:16:16;67841.53;;;17.90;100.00
44144;BME280;68165;51.920;4.492;2023-05-07T05:18:42;67820.06;;;17.68;100.00
44144;BME280;68165;51.920;4.492;2023-05-07T05:21:07;67829.75;;;17.79;100.00
44144;BME280;68165;51.920;4.492;2023-05-07T05:23:33;67827.50;;;17.77;100.00
44144;BME280;68165;51.920;4.492;2023-05-07T05:25:58;67835.34;;;17.84;100.00
44144;BME280;68165;51.920;4.492;2023-05-07T05:28:24;67837.91;;;17.91;100.00
44144;BME280;68165;51.920;4.492;2023-05-07T05:30:50;67851.78;;;18.02;100.00
44144;BME280;68165;51.920;4.492;2023-05-07T05:33:16;67851.22;;;18.01;100.00
44144;BME280;68165;51.920;4.492;2023-05-07T05:35:41;67842.25;;;17.93;100.00
44144;BME280;68165;51.920;4.492;2023-05-07T05:38:07;67827.09;;;17.79;100.00
44144;BME280;68165;51.920;4.492;2023-05-07T05:40:33;67793.41;;;17.49;100.00
44144;BME280;68165;51.920;4.492;2023-05-07T05:42:59;67775.03;;;17.35;100.00
44144;BME280;68165;51.920;4.492;2023-05-07T05:45:24;67765.03;;;17.19;100.00
44144;BME280;68165;51.920;4.492;2023-05-07T05:47:50;67764.78;;;17.23;100.00
44144;BME280;68165;51.920;4.492;2023-05-07T05:50:15;67763.66;;;17.22;100.00
44144;BME280;68165;51.920;4.492;2023-05-07T05:52:40;67751.59;;;17.06;100.00
44144;BME280;68165;51.920;4.492;2023-05-07T05:55:07;67741.81;;;17.02;100.00
44144;BME280;68165;51.920;4.492;2023-05-07T05:57:33;67718.41;;;16.84;100.00
44144;BME280;68165;51.920;4.492;2023-05-07T05:59:58;67711.78;;;16.70;100.00
44144;BME280;68165;51.920;4.492;2023-05-07T06:02:24;67706.47;;;16.70;100.00
44144;BME280;68165;51.920;4.492;2023-05-07T06:04:49;67706.88;;;16.68;100.00
44144;BME280;68165;51.920;4.492;2023-05-07T06:07:15;67691.56;;;16.52;100.00
44144;BME280;68165;51.920;4.492;2023-05-07T06:09:40;67692.28;;;16.55;100.00
44144;BME280;68165;51.920;4.492;2023-05-07T06:12:05;67709.13;;;16.70;100.00
44144;BME280;68165;51.920;4.492;2023-05-07T06:14:31;67700.88;;;16.65;100.00
44144;BME280;68165;51.920;4.492;2023-05-07T06:16:56;67683.06;;;16.52;100.00
44144;BME280;68165;51.920;4.492;2023-05-07T06:19:22;67710.41;;;16.74;100.00
44144;BME280;68165;51.920;4.492;2023-05-07T06:21:49;67743.16;;;16.99;100.00
44144;BME280;68165;51.920;4.492;2023-05-07T06:24:15;67745.03;;;17.03;100.00
44144;BME280;68165;51.920;4.492;2023-05-07T06:26:47;67755.41;;;17.17;100.00
44144;BME280;68165;51.920;4.492;2023-05-07T06:29:13;67776.59;;;17.34;100.00
44144;BME280;68165;51.920;4.492;2023-05-07T06:31:38;67783.31;;;17.40;100.00
44144;BME280;68165;51.920;4.492;2023-05-07T06:34:05;67793.41;;;17.49;100.00
44144;BME280;68165;51.920;4.492;2023-05-07T06:36:30;67816.97;;;17.70;100.00
44144;BME280;68165;51.920;4.492;2023-05-07T06:38:57;67840.00;;;17.91;100.00
44144;BME280;68165;51.920;4.492;2023-05-07T06:41:22;67868.06;;;18.16;100.00
44144;BME280;68165;51.920;4.492;2023-05-07T06:43:47;67883.06;;;18.27;100.00
44144;BME280;68165;51.920;4.492;2023-05-07T06:46:13;67911.88;;;18.56;100.00
44144;BME280;68165;51.920;4.492;2023-05-07T06:48:38;67945.00;;;18.86;100.00
44144;BME280;68165;51.920;4.492;2023-05-07T06:51:04;67935.03;;;18.79;100.00
44144;BME280;68165;51.920;4.492;2023-05-07T06:53:29;67954.97;;;18.92;100.00
44144;BME280;68165;51.920;4.492;2023-05-07T06:55:56;67953.44;;;18.93;100.00
44144;BME280;68165;51.920;4.492;2023-05-07T06:58:21;67957.91;;;18.97;100.00
44144;BME280;68165;51.920;4.492;2023-05-07T07:00:47;67960.88;;;19.02;100.00
44144;BME280;68165;51.920;4.492;2023-05-07T07:03:14;67986.41;;;19.21;100.00
44144;BME280;68165;51.920;4.492;2023-05-07T07:05:42;68014.53;;;19.46;100.00
44144;BME280;68165;51.920;4.492;2023-05-07T07:08:09;68061.72;;;19.88;100.00
44144;BME280;68165;51.920;4.492;2023-05-07T07:10:34;68050.63;;;19.81;100.00
44144;BME280;68165;51.920;4.492;2023-05-07T07:13:00;68041.63;;;19.73;100.00
44144;BME280;68165;51.920;4.492;2023-05-07T07:15:26;68024.78;;;19.58;100.00
44144;BME280;68165;51.920;4.492;2023-05-07T07:17:52;68035.47;;;19.67;100.00
44144;BME280;68165;51.920;4.492;2023-05-07T07:20:17;68044.63;;;19.78;100.00
44144;BME280;68165;51.920;4.492;2023-05-07T07:22:43;68026.47;;;19.59;100.00
44144;BME280;68165;51.920;4.492;2023-05-07T07:25:09;68050.91;;;19.76;100.00
44144;BME280;68165;51.920;4.492;2023-05-07T07:27:36;68074.22;;;20.02;100.00
44144;BME280;68165;51.920;4.492;2023-05-07T07:30:01;68076.34;;;20.02;100.00
44144;BME280;68165;51.920;4.492;2023-05-07T07:32:27;68061.72;;;19.88;100.00
44144;BME280;68165;51.920;4.492;2023-05-07T07:34:52;68072.56;;;20.01;100.00
44144;BME280;68165;51.920;4.492;2023-05-07T07:37:17;68066.94;;;19.95;100.00
44144;BME280;68165;51.920;4.492;2023-05-07T07:39:43;68079.59;;;20.12;100.00
44144;BME280;68165;51.920;4.492;2023-05-07T07:42:10;68120.22;;;20.41;100.00
44144;BME280;68165;51.920;4.492;2023-05-07T07:44:35;68138.38;;;20.60;100.00
44144;BME280;68165;51.920;4.492;2023-05-07T07:47:01;68125.00;;;20.50;100.00
44144;BME280;68165;51.920;4.492;2023-05-07T07:49:26;68173.25;;;20.91;100.00
44144;BME280;68165;51.920;4.492;2023-05-07T07:51:52;68219.94;;;21.33;100.00
44144;BME280;68165;51.920;4.492;2023-05-07T07:54:17;68239.09;;;21.50;100.00
44144;BME280;68165;51.920;4.492;2023-05-07T07:56:43;68291.44;;;21.97;97.27
44144;BME280;68165;51.920;4.492;2023-05-07T07:59:08;68288.03;;;21.94;93.96
44144;BME280;68165;51.920;4.492;2023-05-07T08:01:33;68303.28;;;22.08;93.32
44144;BME280;68165;51.920;4.492;2023-05-07T08:03:59;68307.19;;;22.12;92.93
44144;BME280;68165;51.920;4.492;2023-05-07T08:06:25;68293.13;;;21.99;91.49
44144;BME280;68165;51.920;4.492;2023-05-07T08:08:51;68285.66;;;21.90;92.53
44144;BME280;68165;51.920;4.492;2023-05-07T08:11:17;68295.78;;;21.99;93.06
44144;BME280;68165;51.920;4.492;2023-05-07T08:13:42;68313.38;;;22.17;93.33
44144;BME280;68165;51.920;4.492;2023-05-07T08:16:08;68318.47;;;22.22;92.45
44144;BME280;68165;51.920;4.492;2023-05-07T08:18:36;68329.72;;;22.32;92.49
44144;BME280;68165;51.920;4.492;2023-05-07T08:21:02;68329.88;;;22.34;92.09
44144;BME280;68165;51.920;4.492;2023-05-07T08:23:27;68333.66;;;22.35;91.13
44144;BME280;68165;51.920;4.492;2023-05-07T08:25:53;68318.47;;;22.22;90.83
44144;BME280;68165;51.920;4.492;2023-05-07T08:28:18;68296.81;;;22.07;91.02
44144;BME280;68165;51.920;4.492;2023-05-07T08:30:45;68294.69;;;21.98;90.95
44144;BME280;68165;51.920;4.492;2023-05-07T08:33:11;68298.06;;;22.01;91.79
44144;BME280;68165;51.920;4.492;2023-05-07T08:35:36;68313.53;;;22.20;91.69
44144;BME280;68165;51.920;4.492;2023-05-07T08:38:02;68334.22;;;22.36;90.73
44144;BME280;68165;51.920;4.492;2023-05-07T08:40:36;68366.31;;;22.65;88.65
44144;BME280;68165;51.920;4.492;2023-05-07T08:43:07;68381.84;;;22.74;88.26
44144;BME280;68165;51.920;4.492;2023-05-07T08:45:34;68367.03;;;22.68;87.79
44144;BME280;68165;51.920;4.492;2023-05-07T08:48:02;68382.69;;;22.79;87.66
44144;BME280;68165;51.920;4.492;2023-05-07T08:50:28;68391.84;;;22.90;86.53
44144;BME280;68165;51.920;4.492;2023-05-07T08:52:54;68393.38;;;22.89;85.80
44144;BME280;68165;51.920;4.492;2023-05-07T08:55:21;68370.84;;;22.69;85.72
44144;BME280;68165;51.920;4.492;2023-05-07T08:57:46;68357.31;;;22.57;87.19
44144;BME280;68165;51.920;4.492;2023-05-07T09:00:13;68368.59;;;22.67;88.07
44144;BME280;68165;51.920;4.492;2023-05-07T09:02:38;68374.53;;;22.77;88.86
44144;BME280;68165;51.920;4.492;2023-05-07T09:05:04;68364.09;;;22.63;88.80
44144;BME280;68165;51.920;4.492;2023-05-07T09:07:30;68357.16;;;22.54;89.10
44144;BME280;68165;51.920;4.492;2023-05-07T09:09:58;68340.41;;;22.42;88.68
44144;BME280;68165;51.920;4.492;2023-05-07T09:12:28;68337.06;;;22.38;88.68
44144;BME280;68165;51.920;4.492;2023-05-07T09:14:53;68315.25;;;22.21;89.32
44144;BME280;68165;51.920;4.492;2023-05-07T09:17:18;68337.63;;;22.39;89.57
44144;BME280;68165;51.920;4.492;2023-05-07T09:19:44;68363.53;;;22.62;88.64
44144;BME280;68165;51.920;4.492;2023-05-07T09:22:13;68390.00;;;22.86;87.42
44144;BME280;68165;51.920;4.492;2023-05-07T09:24:39;68390.00;;;22.86;84.74
44144;BME280;68165;51.920;4.492;2023-05-07T09:27:05;68387.75;;;22.84;84.53
44144;BME280;68165;51.920;4.492;2023-05-07T09:29:31;68395.22;;;22.93;82.89
44144;BME280;68165;51.920;4.492;2023-05-07T09:32:04;68398.88;;;22.92;83.07
44144;BME280;68165;51.920;4.492;2023-05-07T09:34:30;68390.00;;;22.86;84.13
44144;BME280;68165;51.920;4.492;2023-05-07T09:36:58;68411.44;;;23.05;83.66
44144;BME280;68165;51.920;4.492;2023-05-07T09:39:25;68418.72;;;23.12;83.40
44144;BME280;68165;51.920;4.492;2023-05-07T09:41:51;68408.75;;;23.05;81.92
44144;BME280;68165;51.920;4.492;2023-05-07T09:44:20;68408.03;;;23.02;80.78
44144;BME280;68165;51.920;4.492;2023-05-07T09:46:46;68440.16;;;23.31;79.16
44144;BME280;68165;51.920;4.492;2023-05-07T09:49:23;68425.22;;;23.23;79.73
44144;BME280;68165;51.920;4.492;2023-05-07T09:51:51;68442.53;;;23.36;78.37
44144;BME280;68165;51.920;4.492;2023-05-07T09:54:19;68467.22;;;23.55;77.82
44144;BME280;68165;51.920;4.492;2023-05-07T09:56:45;68474.56;;;23.62;77.40
44144;BME280;68165;51.920;4.492;2023-05-07T09:59:13;68467.22;;;23.55;75.84
44144;BME280;68165;51.920;4.492;2023-05-07T10:01:41;68500.34;;;23.83;76.25
44144;BME280;68165;51.920;4.492;2023-05-07T10:04:07;68519.06;;;24.02;75.85
44144;BME280;68165;51.920;4.492;2023-05-07T10:06:34;68519.66;;;24.02;74.21
44144;BME280;68165;51.920;4.492;2023-05-07T10:09:01;68536.00;;;24.17;74.22
44144;BME280;68165;51.920;4.492;2023-05-07T10:11:27;68541.66;;;24.22;73.89
44144;BME280;68165;51.920;4.492;2023-05-07T10:13:53;68540.25;;;24.26;73.00
44144;BME280;68165;51.920;4.492;2023-05-07T10:16:20;68556.47;;;24.38;72.10
44144;BME280;68165;51.920;4.492;2023-05-07T10:18:46;68580.00;;;24.57;70.67
44144;BME280;68165;51.920;4.492;2023-05-07T10:21:20;68598.06;;;24.73;70.31
44144;BME280;68165;51.920;4.492;2023-05-07T10:23:51;68611.03;;;24.85;70.20
44144;BME280;68165;51.920;4.492;2023-05-07T10:26:22;68595.25;;;24.70;69.89
44144;BME280;68165;51.920;4.492;2023-05-07T10:28:52;68586.09;;;24.60;69.59
44144;BME280;68165;51.920;4.492;2023-05-07T10:31:58;68599.75;;;24.74;69.54
44144;BME280;68165;51.920;4.492;2023-05-07T10:34:29;68593.13;;;24.71;69.89
44144;BME280;68165;51.920;4.492;2023-05-07T10:36:55;68612.16;;;24.86;68.42
44144;BME280;68165;51.920;4.492;2023-05-07T10:39:23;68609.06;;;24.78;68.82
44144;BME280;68165;51.920;4.492;2023-05-07T10:41:48;68616.94;;;24.85;68.23
44144;BME280;68165;51.920;4.492;2023-05-07T10:44:28;68617.66;;;24.88;67.52
44144;BME280;68165;51.920;4.492;2023-05-07T10:47:11;68595.25;;;24.70;67.16
44144;BME280;68165;51.920;4.492;2023-05-07T10:52:19;68641.53;;;25.12;67.20
44144;BME280;68165;51.920;4.492;2023-05-07T10:54:45;68664.66;;;25.33;65.87
44144;BME280;68165;51.920;4.492;2023-05-07T10:59:59;68664.09;;;25.32;65.12
44144;BME280;68165;51.920;4.492;2023-05-07T11:05:27;68631.66;;;25.08;66.02
44144;BME280;68165;51.920;4.492;2023-05-07T11:07:57;68617.09;;;24.88;66.46
44144;BME280;68165;51.920;4.492;2023-05-07T11:10:23;68594.81;;;24.72;67.49
44144;BME280;68165;51.920;4.492;2023-05-07T11:12:52;68580.84;;;24.62;68.27
44144;BME280;68165;51.920;4.492;2023-05-07T11:15:38;68569.31;;;24.47;68.86
44144;BME280;68165;51.920;4.492;2023-05-07T11:18:04;68557.59;;;24.39;69.47
44144;BME280;68165;51.920;4.492;2023-05-07T11:26:10;68561.41;;;24.40;68.92
44144;BME280;68165;51.920;4.492;2023-05-07T11:28:40;68549.00;;;24.29;69.28
44144;BME280;68165;51.920;4.492;2023-05-07T11:31:07;68547.88;;;24.28;69.45
44144;BME280;68165;51.920;4.492;2023-05-07T11:33:33;68536.31;;;24.22;69.08
44144;BME280;68165;51.920;4.492;2023-05-07T11:36:00;68534.59;;;24.11;69.62
44144;BME280;68165;51.920;4.492;2023-05-07T11:38:25;68528.25;;;24.13;69.39
44144;BME280;68165;51.920;4.492;2023-05-07T11:40:51;68536.28;;;24.13;69.81
44144;BME280;68165;51.920;4.492;2023-05-07T11:43:17;68519.22;;;24.05;69.77
44144;BME280;68165;51.920;4.492;2023-05-07T11:45:42;68532.63;;;24.14;69.48
44144;BME280;68165;51.920;4.492;2023-05-07T11:48:08;68549.97;;;24.27;68.94
44144;BME280;68165;51.920;4.492;2023-05-07T11:50:33;68569.72;;;24.45;69.07
44144;BME280;68165;51.920;4.492;2023-05-07T11:52:59;68572.97;;;24.46;67.55
44144;BME280;68165;51.920;4.492;2023-05-07T11:55:24;68586.94;;;24.65;67.90
44144;BME280;68165;51.920;4.492;2023-05-07T11:57:51;68604.81;;;24.79;66.79
44144;BME280;68165;51.920;4.492;2023-05-07T12:00:17;68606.53;;;24.80;67.16
44144;BME280;68165;51.920;4.492;2023-05-07T12:02:43;68620.66;;;24.93;66.98
44144;BME280;68165;51.920;4.492;2023-05-07T12:05:08;68645.91;;;25.13;66.65
44144;BME280;68165;51.920;4.492;2023-05-07T12:07:34;68656.75;;;25.26;66.24
44144;BME280;68165;51.920;4.492;2023-05-07T12:10:04;68664.94;;;25.28;65.23
44144;BME280;68165;51.920;4.492;2023-05-07T12:12:30;68672.00;;;25.39;65.52
44144;BME280;68165;51.920;4.492;2023-05-07T12:14:55;68689.50;;;25.55;64.66
44144;BME280;68165;51.920;4.492;2023-05-07T12:17:23;68683.16;;;25.47;63.43
44144;BME280;68165;51.920;4.492;2023-05-07T12:19:49;68676.38;;;25.41;63.47
44144;BME280;68165;51.920;4.492;2023-05-07T12:22:14;68678.91;;;25.48;63.74
44144;BME280;68165;51.920;4.492;2023-05-07T12:24:46;68682.84;;;25.51;63.58
44144;BME280;68165;51.920;4.492;2023-05-07T12:27:13;68684.41;;;25.50;63.38
44144;BME280;68165;51.920;4.492;2023-05-07T12:29:39;68677.22;;;25.46;63.14
44144;BME280;68165;51.920;4.492;2023-05-07T12:32:06;68666.34;;;25.34;63.17
44144;BME280;68165;51.920;4.492;2023-05-07T12:34:32;68654.66;;;25.26;63.95
44144;BME280;68165;51.920;4.492;2023-05-07T12:37:01;68657.34;;;25.26;63.91
44144;BME280;68165;51.920;4.492;2023-05-07T12:39:27;68647.72;;;25.17;65.08
44144;BME280;68165;51.920;4.492;2023-05-07T12:41:54;68623.19;;;25.00;65.61
44144;BME280;68165;51.920;4.492;2023-05-07T12:44:23;68615.00;;;24.88;66.48
44144;BME280;68165;51.920;4.492;2023-05-07T12:46:49;68603.16;;;24.77;67.46
44144;BME280;68165;51.920;4.492;2023-05-07T12:49:15;68592.28;;;24.65;67.90
44144;BME280;68165;51.920;4.492;2023-05-07T12:51:40;68567.75;;;24.48;68.80
44144;BME280;68165;51.920;4.492;2023-05-07T12:54:06;68538.69;;;24.17;71.46
44144;BME280;68165;51.920;4.492;2023-05-07T12:56:35;68491.03;;;23.79;73.96
44144;BME280;68165;51.920;4.492;2023-05-07T12:59:01;68471.31;;;23.62;74.61
44144;BME280;68165;51.920;4.492;2023-05-07T13:01:30;68465.69;;;23.56;75.11